createdAt,value
2017-12-25T00:00:16.009Z,6.23
2017-12-25T00:03:05.925Z,5.77
2017-12-25T00:05:48.734Z,5.10
2017-12-25T00:08:31.483Z,5.93
2017-12-25T00:11:14.306Z,6.17
2017-12-25T00:13:58.845Z,5.20
2017-12-25T00:16:41.758Z,5.70
2017-12-25T00:19:24.445Z,6.20
2017-12-25T00:22:08.870Z,6.30
2017-12-25T00:24:51.751Z,6.80
2017-12-25T00:27:34.558Z,5.97
2017-12-25T00:30:24.411Z,5.20
2017-12-25T00:33:19.698Z,5.20
2017-12-25T00:36:02.022Z,5.33
2017-12-25T00:38:44.526Z,5.10
2017-12-25T00:41:27.284Z,4.87
2017-12-25T00:44:09.934Z,5.30
2017-12-25T00:46:53.121Z,5.13
2017-12-25T00:49:37.303Z,5.20
2017-12-25T00:52:20.236Z,5.40
2017-12-25T00:55:02.923Z,6.40
2017-12-25T00:57:46.334Z,5.77
2017-12-25T01:00:29.218Z,6.13
2017-12-25T01:03:12.009Z,5.03
2017-12-25T01:06:02.985Z,5.40
2017-12-25T01:08:45.706Z,5.10
2017-12-25T01:11:28.182Z,5.50
2017-12-25T01:14:10.863Z,5.00
2017-12-25T01:16:53.657Z,4.67
2017-12-25T01:19:36.833Z,5.10
2017-12-25T01:22:19.054Z,4.87
2017-12-25T01:25:07.688Z,5.33
2017-12-25T01:27:50.398Z,5.40
2017-12-25T01:30:33.291Z,4.40
2017-12-25T01:33:16.152Z,5.00
2017-12-25T01:35:58.722Z,5.20
2017-12-25T01:38:41.677Z,5.33
2017-12-25T01:41:26.394Z,4.97
2017-12-25T01:44:09.266Z,4.83
2017-12-25T01:46:57.781Z,4.77
2017-12-25T01:49:47.339Z,5.10
2017-12-25T01:52:37.975Z,4.97
2017-12-25T01:55:22.669Z,5.30
2017-12-25T01:58:06.326Z,5.17
2017-12-25T02:01:05.925Z,4.63
2017-12-25T02:03:48.735Z,5.10
2017-12-25T02:06:37.401Z,4.80
2017-12-25T02:09:20.221Z,5.20
2017-12-25T02:12:03.646Z,4.37
2017-12-25T02:14:46.558Z,4.60
2017-12-25T02:17:29.352Z,5.87
2017-12-25T02:20:12.119Z,5.20
2017-12-25T02:22:54.722Z,4.67
2017-12-25T02:25:37.370Z,4.60
2017-12-25T02:28:19.800Z,4.80
2017-12-25T02:31:02.658Z,5.10
2017-12-25T02:33:53.247Z,4.70
2017-12-25T02:36:42.418Z,4.53
2017-12-25T02:39:24.783Z,5.17
2017-12-25T02:42:07.665Z,4.90
2017-12-25T02:44:50.134Z,5.03
2017-12-25T02:47:32.947Z,6.40
2017-12-25T02:50:15.838Z,5.30
2017-12-25T02:52:58.017Z,5.13
2017-12-25T02:55:40.714Z,4.57
2017-12-25T02:58:41.041Z,4.97
2017-12-25T03:01:23.909Z,5.40
2017-12-25T03:04:06.142Z,4.37
2017-12-25T03:06:48.975Z,5.10
2017-12-25T03:09:39.139Z,5.27
2017-12-25T03:12:21.618Z,5.10
2017-12-25T03:15:03.880Z,4.20
2017-12-25T03:17:46.232Z,4.50
2017-12-25T03:20:28.997Z,5.63
2017-12-25T03:23:31.012Z,5.80
2017-12-25T03:26:13.262Z,5.13
2017-12-25T03:28:56.896Z,5.13
2017-12-25T03:31:44.510Z,4.60
2017-12-25T03:34:27.593Z,5.13
2017-12-25T03:37:10.512Z,5.50
2017-12-25T03:39:53.531Z,4.90
2017-12-25T03:42:36.534Z,5.07
2017-12-25T03:45:19.462Z,4.40
2017-12-25T03:48:02.176Z,4.73
2017-12-25T03:50:44.810Z,5.70
2017-12-25T03:53:28.369Z,5.77
2017-12-25T03:56:11.241Z,4.67
2017-12-25T03:58:54.158Z,4.90
2017-12-25T04:01:36.986Z,5.73
2017-12-25T04:04:21.748Z,5.13
2017-12-25T04:07:06.438Z,5.47
2017-12-25T04:09:51.053Z,5.40
2017-12-25T04:12:34.078Z,4.73
2017-12-25T04:15:24.304Z,5.20
2017-12-25T04:18:06.848Z,4.90
2017-12-25T04:20:49.885Z,5.60
2017-12-25T04:23:33.031Z,4.67
2017-12-25T04:26:15.669Z,6.27
2017-12-25T04:28:58.420Z,5.00
2017-12-25T04:31:40.584Z,5.60
2017-12-25T04:34:23.382Z,5.53
2017-12-25T04:37:05.914Z,5.50
2017-12-25T04:39:51.678Z,5.80
2017-12-25T04:42:34.254Z,4.80
2017-12-25T04:45:16.705Z,5.30
2017-12-25T04:48:00.399Z,6.33
2017-12-25T04:50:43.211Z,5.83
2017-12-25T04:53:25.697Z,5.10
2017-12-25T04:56:08.362Z,4.80
2017-12-25T04:58:57.087Z,4.93
2017-12-25T05:01:39.891Z,6.40
2017-12-25T05:04:22.657Z,5.30
2017-12-25T05:07:05.174Z,5.67
2017-12-25T05:09:47.742Z,5.40
2017-12-25T05:12:30.314Z,5.90
2017-12-25T05:15:12.746Z,6.37
2017-12-25T05:17:56.434Z,5.80
2017-12-25T05:20:38.923Z,5.33
2017-12-25T05:23:21.586Z,5.30
2017-12-25T05:26:08.861Z,5.70
2017-12-25T05:28:51.066Z,6.17
2017-12-25T05:31:42.567Z,5.77
2017-12-25T05:34:25.467Z,6.20
2017-12-25T05:37:08.062Z,5.57
2017-12-25T05:39:50.962Z,5.50
2017-12-25T05:42:33.845Z,5.27
2017-12-25T05:45:17.244Z,5.77
2017-12-25T05:48:00.210Z,5.20
2017-12-25T05:50:42.751Z,5.47
2017-12-25T05:53:25.707Z,5.47
2017-12-25T05:56:09.070Z,4.50
2017-12-25T05:58:51.926Z,5.87
2017-12-25T06:01:34.788Z,5.53
2017-12-25T06:04:17.595Z,5.10
2017-12-25T06:07:07.550Z,4.73
2017-12-25T06:09:50.015Z,4.80
2017-12-25T06:12:32.722Z,5.07
2017-12-25T06:15:15.197Z,4.87
2017-12-25T06:17:57.997Z,4.70
2017-12-25T06:20:40.834Z,4.83
2017-12-25T06:23:29.201Z,4.33
2017-12-25T06:26:11.701Z,4.77
2017-12-25T06:28:54.439Z,4.50
2017-12-25T06:31:37.128Z,4.93
2017-12-25T06:34:19.897Z,4.47
2017-12-25T06:37:02.263Z,4.30
2017-12-25T06:39:51.074Z,3.73
2017-12-25T06:42:39.666Z,4.53
2017-12-25T06:45:22.373Z,4.13
2017-12-25T06:48:05.039Z,3.73
2017-12-25T06:50:51.074Z,4.67
2017-12-25T06:53:33.624Z,4.53
2017-12-25T06:56:16.422Z,4.20
2017-12-25T06:59:10.929Z,4.37
2017-12-25T07:01:53.299Z,5.10
2017-12-25T07:04:41.764Z,4.37
2017-12-25T07:07:23.875Z,4.30
2017-12-25T07:10:18.371Z,4.50
2017-12-25T07:13:01.182Z,4.43
2017-12-25T07:15:43.694Z,3.87
2017-12-25T07:18:26.243Z,4.80
2017-12-25T07:21:08.781Z,5.03
2017-12-25T07:23:51.218Z,4.20
2017-12-25T07:26:34.179Z,4.83
2017-12-25T07:29:16.434Z,4.60
2017-12-25T07:31:59.678Z,4.47
2017-12-25T07:34:42.573Z,4.27
2017-12-25T07:37:31.410Z,3.70
2017-12-25T07:40:13.783Z,5.00
2017-12-25T07:42:56.526Z,5.00
2017-12-25T07:45:38.964Z,4.30
2017-12-25T07:48:27.632Z,5.17
2017-12-25T07:51:11.658Z,4.40
2017-12-25T07:53:55.787Z,4.70
2017-12-25T07:56:39.020Z,4.20
2017-12-25T07:59:21.968Z,4.30
2017-12-25T08:02:04.588Z,4.33
2017-12-25T08:04:48.971Z,5.83
2017-12-25T08:07:31.905Z,4.27
2017-12-25T08:10:14.578Z,4.10
2017-12-25T08:12:57.700Z,4.20
2017-12-25T08:15:40.380Z,4.77
2017-12-25T08:18:22.862Z,4.07
2017-12-25T08:21:05.530Z,4.30
2017-12-25T08:23:48.169Z,4.40
2017-12-25T08:26:30.662Z,5.20
2017-12-25T08:29:13.483Z,3.43
2017-12-25T08:31:56.196Z,4.10
2017-12-25T08:34:38.966Z,4.60
2017-12-25T08:37:25.613Z,5.00
2017-12-25T08:40:08.517Z,4.23
2017-12-25T08:42:51.877Z,3.83
2017-12-25T08:45:34.692Z,4.00
2017-12-25T08:48:24.969Z,4.20
2017-12-25T08:51:07.476Z,5.30
2017-12-25T08:53:50.283Z,3.53
2017-12-25T08:56:34.093Z,4.37
2017-12-25T08:59:16.886Z,3.90
2017-12-25T09:02:00.477Z,3.60
2017-12-25T09:04:42.661Z,4.00
2017-12-25T09:07:25.661Z,4.10
2017-12-25T09:10:08.329Z,3.90
2017-12-25T09:12:51.154Z,4.13
2017-12-25T09:15:33.773Z,4.00
2017-12-25T09:18:16.763Z,3.50
2017-12-25T09:20:59.525Z,3.47
2017-12-25T09:23:47.066Z,3.03
2017-12-25T09:26:29.998Z,3.13
2017-12-25T09:29:12.776Z,3.80
2017-12-25T09:31:55.599Z,3.30
2017-12-25T09:34:39.546Z,3.10
2017-12-25T09:37:22.318Z,3.10
2017-12-25T09:40:05.031Z,3.10
2017-12-25T09:42:48.548Z,2.67
2017-12-25T09:45:31.460Z,2.50
2017-12-25T09:48:14.339Z,2.57
2017-12-25T09:50:56.826Z,2.90
2017-12-25T09:53:40.247Z,3.00
2017-12-25T09:56:23.205Z,2.83
2017-12-25T09:59:06.024Z,3.50
2017-12-25T10:01:48.563Z,3.13
2017-12-25T10:04:31.119Z,2.83
2017-12-25T10:07:13.670Z,2.83
2017-12-25T10:09:56.042Z,2.90
2017-12-25T10:12:38.838Z,2.70
2017-12-25T10:15:21.738Z,2.57
2017-12-25T10:18:17.014Z,2.60
2017-12-25T10:20:59.770Z,2.53
2017-12-25T10:23:42.488Z,2.13
2017-12-25T10:26:25.927Z,2.60
2017-12-25T10:29:08.789Z,3.07
2017-12-25T10:31:51.399Z,2.87
2017-12-25T10:34:34.190Z,2.80
2017-12-25T10:37:16.830Z,3.10
2017-12-25T10:39:59.540Z,2.80
2017-12-25T10:42:42.296Z,2.60
2017-12-25T10:45:26.915Z,2.90
2017-12-25T10:48:10.626Z,2.50
2017-12-25T10:50:53.538Z,2.37
2017-12-25T10:53:36.891Z,2.20
2017-12-25T10:56:19.688Z,2.53
2017-12-25T10:59:02.479Z,2.30
2017-12-25T11:01:45.242Z,2.90
2017-12-25T11:04:27.771Z,3.13
2017-12-25T11:07:10.571Z,3.23
2017-12-25T11:09:53.268Z,2.67
2017-12-25T11:12:39.890Z,3.00
2017-12-25T11:15:22.991Z,2.60
2017-12-25T11:18:05.294Z,2.90
2017-12-25T11:20:47.986Z,3.20
2017-12-25T11:23:30.650Z,2.87
2017-12-25T11:26:13.323Z,2.67
2017-12-25T11:28:58.539Z,3.30
2017-12-25T11:31:40.756Z,3.67
2017-12-25T11:34:24.112Z,3.30
2017-12-25T11:37:07.074Z,3.63
2017-12-25T11:39:49.926Z,2.90
2017-12-25T11:42:32.704Z,3.20
2017-12-25T11:45:19.255Z,3.17
2017-12-25T11:48:03.280Z,3.00
2017-12-25T11:50:45.803Z,2.90
2017-12-25T11:53:28.333Z,3.00
2017-12-25T11:56:11.010Z,4.37
2017-12-25T11:58:53.719Z,3.70
2017-12-25T12:01:36.670Z,2.37
2017-12-25T12:04:19.718Z,2.40
2017-12-25T12:07:10.246Z,2.30
2017-12-25T12:09:53.067Z,2.30
2017-12-25T12:12:43.546Z,3.00
2017-12-25T12:15:34.994Z,3.07
2017-12-25T12:18:17.498Z,2.50
2017-12-25T12:21:00.191Z,2.77
2017-12-25T12:23:43.054Z,2.50
2017-12-25T12:26:25.746Z,2.27
2017-12-25T12:29:08.403Z,2.53
2017-12-25T12:31:51.430Z,2.40
2017-12-25T12:34:34.415Z,2.20
2017-12-25T12:37:17.169Z,2.07
2017-12-25T12:39:59.890Z,2.33
2017-12-25T12:42:42.970Z,2.43
2017-12-25T12:45:25.581Z,2.20
2017-12-25T12:48:08.085Z,2.50
2017-12-25T12:50:50.801Z,2.30
2017-12-25T12:53:33.918Z,2.10
2017-12-25T12:56:16.694Z,3.20
2017-12-25T12:58:58.831Z,2.33
2017-12-25T13:01:41.611Z,3.57
2017-12-25T13:04:24.416Z,2.43
2017-12-25T13:07:07.357Z,3.07
2017-12-25T13:09:50.267Z,2.10
2017-12-25T13:12:34.416Z,1.83
2017-12-25T13:15:17.284Z,3.13
2017-12-25T13:17:59.937Z,3.03
2017-12-25T13:20:46.018Z,2.23
2017-12-25T13:23:28.580Z,4.00
2017-12-25T13:26:11.233Z,2.57
2017-12-25T13:28:54.020Z,2.30
2017-12-25T13:31:44.099Z,2.70
2017-12-25T13:34:26.577Z,1.80
2017-12-25T13:37:09.350Z,1.93
2017-12-25T13:39:58.442Z,2.40
2017-12-25T13:42:41.353Z,3.40
2017-12-25T13:45:25.066Z,4.90
2017-12-25T13:48:07.991Z,3.57
2017-12-25T13:50:50.655Z,3.60
2017-12-25T13:53:40.501Z,2.80
2017-12-25T13:56:23.382Z,4.30
2017-12-25T13:59:06.166Z,4.80
2017-12-25T14:01:49.083Z,2.40
2017-12-25T14:04:31.810Z,2.60
2017-12-25T14:07:14.534Z,4.07
2017-12-25T14:09:57.548Z,3.53
2017-12-25T14:12:46.627Z,3.50
2017-12-25T14:15:28.906Z,3.60
2017-12-25T14:18:11.762Z,3.17
2017-12-25T14:20:54.439Z,3.10
2017-12-25T14:23:37.319Z,3.57
2017-12-25T14:26:20.107Z,3.93
2017-12-25T14:29:10.633Z,4.33
2017-12-25T14:31:53.451Z,2.67
2017-12-25T14:34:36.248Z,2.60
2017-12-25T14:37:19.028Z,2.43
2017-12-25T14:40:01.719Z,2.23
2017-12-25T14:42:44.611Z,2.83
2017-12-25T14:45:27.195Z,2.30
2017-12-25T14:48:15.985Z,2.20
2017-12-25T14:51:10.392Z,2.30
2017-12-25T14:53:53.079Z,2.50
2017-12-25T14:56:35.726Z,2.33
2017-12-25T14:59:18.552Z,3.17
2017-12-25T15:02:15.120Z,2.50
2017-12-25T15:04:57.871Z,2.53
2017-12-25T15:07:44.430Z,2.43
2017-12-25T15:10:27.243Z,2.70
2017-12-25T15:13:16.769Z,2.77
2017-12-25T15:15:59.607Z,2.67
2017-12-25T15:18:42.181Z,3.13
2017-12-25T15:21:25.098Z,2.70
2017-12-25T15:24:08.594Z,3.43
2017-12-25T15:26:51.478Z,3.17
2017-12-25T15:29:34.172Z,2.90
2017-12-25T15:32:16.977Z,3.90
2017-12-25T15:35:00.236Z,3.50
2017-12-25T15:37:42.631Z,3.27
2017-12-25T15:40:25.501Z,3.40
2017-12-25T15:43:08.293Z,2.57
2017-12-25T15:45:57.938Z,3.10
2017-12-25T15:48:40.703Z,2.50
2017-12-25T15:51:23.516Z,2.30
2017-12-25T15:54:06.518Z,2.30
2017-12-25T15:56:48.985Z,2.40
2017-12-25T15:59:31.603Z,1.90
2017-12-25T16:02:14.643Z,2.70
2017-12-25T16:04:57.423Z,3.00
2017-12-25T16:07:40.285Z,2.67
2017-12-25T16:10:23.008Z,3.37
2017-12-25T16:13:05.776Z,3.90
2017-12-25T16:15:48.675Z,3.97
2017-12-25T16:18:31.504Z,3.23
2017-12-25T16:21:14.539Z,5.40
2017-12-25T16:23:56.901Z,3.87
2017-12-25T16:26:39.863Z,4.50
2017-12-25T16:29:22.215Z,4.33
2017-12-25T16:32:05.085Z,3.53
2017-12-25T16:34:47.842Z,3.33
2017-12-25T16:37:36.535Z,3.53
2017-12-25T16:40:19.923Z,2.30
2017-12-25T16:43:02.814Z,2.90
2017-12-25T16:45:45.538Z,2.60
2017-12-25T16:48:28.153Z,2.60
2017-12-25T16:51:10.721Z,2.80
2017-12-25T16:53:54.463Z,2.97
2017-12-25T16:56:38.908Z,2.70
2017-12-25T16:59:21.871Z,2.80
2017-12-25T17:02:04.338Z,2.50
2017-12-25T17:04:46.944Z,3.00
2017-12-25T17:07:29.618Z,2.90
2017-12-25T17:10:12.420Z,3.00
2017-12-25T17:12:54.898Z,3.70
2017-12-25T17:15:37.418Z,2.40
2017-12-25T17:18:20.065Z,3.20
2017-12-25T17:21:02.786Z,2.90
2017-12-25T17:23:45.183Z,2.77
2017-12-25T17:26:27.805Z,2.87
2017-12-25T17:29:10.413Z,3.60
2017-12-25T17:31:53.086Z,4.10
2017-12-25T17:34:35.577Z,3.70
2017-12-25T17:37:23.095Z,2.90
2017-12-25T17:40:05.288Z,3.17
2017-12-25T17:42:48.019Z,3.10
2017-12-25T17:45:30.707Z,3.17
2017-12-25T17:48:19.431Z,3.40
2017-12-25T17:51:02.346Z,3.00
2017-12-25T17:53:44.987Z,3.70
2017-12-25T17:56:27.708Z,3.33
2017-12-25T17:59:10.524Z,3.93
2017-12-25T18:01:53.230Z,3.30
2017-12-25T18:04:35.987Z,3.57
2017-12-25T18:07:18.521Z,4.73
2017-12-25T18:10:01.255Z,4.10
2017-12-25T18:12:44.605Z,3.90
2017-12-25T18:15:27.509Z,3.10
2017-12-25T18:18:10.539Z,3.53
2017-12-25T18:20:53.289Z,3.53
2017-12-25T18:23:36.153Z,3.90
2017-12-25T18:26:18.978Z,3.60
2017-12-25T18:29:01.842Z,4.20
2017-12-25T18:31:57.505Z,4.23
2017-12-25T18:34:40.279Z,4.57
2017-12-25T18:37:23.513Z,4.60
2017-12-25T18:40:05.854Z,5.00
2017-12-25T18:43:02.629Z,5.27
2017-12-25T18:45:45.405Z,3.57
2017-12-25T18:48:28.210Z,5.10
2017-12-25T18:51:10.394Z,3.90
2017-12-25T18:53:59.323Z,3.70
2017-12-25T18:56:41.860Z,3.40
2017-12-25T18:59:24.767Z,4.00
2017-12-25T19:02:07.862Z,4.23
2017-12-25T19:04:57.801Z,4.40
2017-12-25T19:07:40.202Z,3.50
2017-12-25T19:10:23.106Z,4.03
2017-12-25T19:13:05.796Z,4.63
2017-12-25T19:15:48.667Z,3.70
2017-12-25T19:18:31.159Z,5.23
2017-12-25T19:21:13.850Z,5.00
2017-12-25T19:23:56.338Z,3.53
2017-12-25T19:26:38.977Z,4.67
2017-12-25T19:29:21.797Z,4.47
2017-12-25T19:32:04.559Z,3.67
2017-12-25T19:34:47.429Z,3.80
2017-12-25T19:37:30.091Z,3.27
2017-12-25T19:40:12.770Z,3.23
2017-12-25T19:42:55.577Z,3.97
2017-12-25T19:45:38.406Z,4.20
2017-12-25T19:48:21.313Z,4.07
2017-12-25T19:51:07.611Z,3.40
2017-12-25T19:53:50.499Z,3.77
2017-12-25T19:56:33.066Z,3.80
2017-12-25T19:59:15.762Z,4.20
2017-12-25T20:01:58.443Z,5.40
2017-12-25T20:04:41.090Z,3.87
2017-12-25T20:07:23.914Z,4.00
2017-12-25T20:10:06.542Z,4.47
2017-12-25T20:12:49.309Z,4.00
2017-12-25T20:15:45.801Z,3.67
2017-12-25T20:18:29.013Z,4.10
2017-12-25T20:21:19.238Z,3.80
2017-12-25T20:24:01.861Z,4.70
2017-12-25T20:26:44.417Z,3.90
2017-12-25T20:29:27.896Z,4.27
2017-12-25T20:32:10.991Z,3.63
2017-12-25T20:34:53.546Z,3.67
2017-12-25T20:37:36.038Z,3.80
2017-12-25T20:40:18.693Z,4.77
2017-12-25T20:43:08.796Z,4.00
2017-12-25T20:45:51.575Z,3.93
2017-12-25T20:48:34.417Z,3.63
2017-12-25T20:51:17.125Z,4.47
2017-12-25T20:54:00.236Z,7.27
2017-12-25T20:56:43.151Z,12.70
2017-12-25T20:59:26.031Z,16.63
2017-12-25T21:02:08.951Z,11.50
2017-12-25T21:04:51.997Z,12.57
2017-12-25T21:07:47.514Z,7.60
2017-12-25T21:10:30.321Z,7.33
2017-12-25T21:13:13.346Z,5.97
2017-12-25T21:15:56.081Z,4.30
2017-12-25T21:18:38.959Z,5.03
2017-12-25T21:21:22.591Z,4.70
2017-12-25T21:24:06.038Z,4.90
2017-12-25T21:26:48.253Z,4.50
2017-12-25T21:29:31.014Z,5.40
2017-12-25T21:32:13.827Z,5.03
2017-12-25T21:34:56.342Z,6.03
2017-12-25T21:37:38.962Z,5.17
2017-12-25T21:40:21.550Z,5.60
2017-12-25T21:43:18.194Z,5.50
2017-12-25T21:46:00.998Z,4.60
2017-12-25T21:48:43.631Z,4.50
2017-12-25T21:51:26.566Z,4.60
2017-12-25T21:54:09.293Z,5.00
2017-12-25T21:56:51.944Z,5.13
2017-12-25T21:59:34.290Z,5.47
2017-12-25T22:02:16.897Z,5.63
2017-12-25T22:04:59.813Z,6.17
2017-12-25T22:07:41.859Z,5.40
2017-12-25T22:10:24.751Z,6.10
2017-12-25T22:13:15.150Z,5.77
2017-12-25T22:15:57.565Z,6.57
2017-12-25T22:18:40.224Z,5.60
2017-12-25T22:21:22.868Z,5.70
2017-12-25T22:24:05.577Z,5.30
2017-12-25T22:26:48.437Z,5.50
2017-12-25T22:29:31.145Z,6.07
2017-12-25T22:32:19.046Z,6.20
2017-12-25T22:35:01.384Z,6.00
2017-12-25T22:37:44.191Z,5.73
2017-12-25T22:40:27.618Z,5.50
2017-12-25T22:43:10.762Z,5.90
2017-12-25T22:45:53.302Z,5.20
2017-12-25T22:48:36.624Z,5.30
2017-12-25T22:51:18.947Z,5.80
2017-12-25T22:54:01.585Z,5.20
2017-12-25T22:56:44.406Z,6.10
2017-12-25T22:59:27.671Z,5.60
2017-12-25T23:02:09.949Z,5.60
2017-12-25T23:04:52.898Z,5.67
2017-12-25T23:07:35.573Z,5.87
2017-12-25T23:10:18.371Z,5.97
2017-12-25T23:13:00.514Z,5.33
2017-12-25T23:15:49.989Z,5.57
2017-12-25T23:18:38.914Z,5.90
2017-12-25T23:21:22.643Z,5.40
2017-12-25T23:24:06.538Z,5.40
2017-12-25T23:26:49.986Z,6.00
2017-12-25T23:29:34.202Z,5.23
2017-12-25T23:32:17.045Z,5.90
2017-12-25T23:35:00.871Z,5.43
2017-12-25T23:37:44.031Z,4.67
2017-12-25T23:40:27.084Z,5.93
2017-12-25T23:43:09.976Z,5.70
2017-12-25T23:45:52.354Z,6.30
2017-12-25T23:48:41.117Z,6.60
2017-12-25T23:51:23.621Z,6.50
2017-12-25T23:54:06.167Z,6.37
2017-12-25T23:56:48.955Z,6.40
2017-12-25T23:59:31.454Z,5.73
